createdAt,value
2019-02-27T00:00:33.460Z,5.29
2019-02-27T00:03:02.306Z,5.35
2019-02-27T00:05:31.071Z,5.35
2019-02-27T00:07:59.845Z,5.33
2019-02-27T00:10:28.612Z,5.31
2019-02-27T00:12:57.364Z,5.29
2019-02-27T00:15:26.134Z,5.33
2019-02-27T00:17:54.887Z,5.31
2019-02-27T00:20:23.652Z,5.19
2019-02-27T00:22:52.421Z,5.11
2019-02-27T00:25:21.193Z,5.00
2019-02-27T00:27:50.054Z,5.00
2019-02-27T00:30:18.888Z,5.00
2019-02-27T00:32:50.935Z,5.07
2019-02-27T00:35:18.226Z,5.08
2019-02-27T00:37:47.083Z,5.09
2019-02-27T00:40:15.918Z,5.13
2019-02-27T00:42:44.696Z,5.18
2019-02-27T00:45:13.523Z,5.20
2019-02-27T00:47:42.295Z,5.24
2019-02-27T00:50:11.068Z,5.27
2019-02-27T00:52:39.944Z,5.27
2019-02-27T00:55:09.712Z,5.28
2019-02-27T00:57:38.472Z,5.24
2019-02-27T01:00:15.853Z,5.30
2019-02-27T01:02:44.644Z,5.35
2019-02-27T01:05:13.506Z,5.40
2019-02-27T01:07:42.383Z,5.40
2019-02-27T01:10:12.877Z,5.41
2019-02-27T01:12:41.743Z,5.42
2019-02-27T01:15:12.218Z,5.45
2019-02-27T01:17:40.989Z,5.40
2019-02-27T01:20:12.296Z,5.35
2019-02-27T01:22:41.064Z,5.28
2019-02-27T01:25:09.997Z,5.26
2019-02-27T01:27:38.767Z,5.24
2019-02-27T01:30:13.083Z,5.20
2019-02-27T01:32:41.863Z,5.13
2019-02-27T01:35:11.524Z,5.10
2019-02-27T01:37:40.365Z,5.12
2019-02-27T01:40:11.955Z,5.02
2019-02-27T01:42:40.717Z,4.99
2019-02-27T01:45:12.470Z,5.07
2019-02-27T01:47:41.235Z,4.97
2019-02-27T01:50:30.474Z,4.99
2019-02-27T01:52:59.243Z,5.05
2019-02-27T01:55:28.004Z,5.06
2019-02-27T01:57:56.770Z,5.06
2019-02-27T02:00:25.633Z,5.06
2019-02-27T02:02:54.386Z,5.02
2019-02-27T02:05:26.135Z,4.93
2019-02-27T02:07:53.630Z,4.98
2019-02-27T02:10:22.474Z,5.01
2019-02-27T02:12:54.551Z,4.98
2019-02-27T02:15:27.275Z,4.99
2019-02-27T02:18:11.896Z,4.93
2019-02-27T02:21:03.702Z,4.83
2019-02-27T02:23:44.919Z,4.81
2019-02-27T02:26:38.442Z,4.75
2019-02-27T02:29:22.009Z,4.69
2019-02-27T02:31:53.747Z,4.61
2019-02-27T02:34:31.155Z,4.54
2019-02-27T02:37:20.834Z,4.46
2019-02-27T02:39:54.762Z,4.30
2019-02-27T02:42:40.953Z,4.18
2019-02-27T02:45:24.523Z,4.08
2019-02-27T02:48:20.312Z,3.97
2019-02-27T02:51:11.148Z,3.76
2019-02-27T02:53:49.198Z,3.71
2019-02-27T02:56:29.733Z,3.58
2019-02-27T02:59:34.093Z,3.57
2019-02-27T03:02:05.765Z,3.47
2019-02-27T03:04:55.177Z,3.39
2019-02-27T03:07:26.849Z,3.42
2019-02-27T03:10:17.953Z,3.37
2019-02-27T03:13:07.106Z,3.31
2019-02-27T03:15:37.646Z,3.30
2019-02-27T03:18:18.272Z,3.26
2019-02-27T03:20:53.213Z,3.24
2019-02-27T03:23:52.549Z,3.16
2019-02-27T03:26:33.221Z,3.18
2019-02-27T03:29:17.361Z,3.17
2019-02-27T03:32:01.417Z,3.13
2019-02-27T03:34:50.908Z,3.06
2019-02-27T03:37:24.832Z,3.02
2019-02-27T03:39:59.191Z,2.99
2019-02-27T03:42:36.819Z,2.97
2019-02-27T03:45:30.650Z,2.92
2019-02-27T03:48:04.416Z,2.81
2019-02-27T03:50:56.777Z,2.80
2019-02-27T03:53:46.421Z,2.73
2019-02-27T03:56:33.144Z,2.70
2019-02-27T03:59:06.321Z,2.64
2019-02-27T04:01:41.016Z,2.57
2019-02-27T04:04:29.546Z,2.59
2019-02-27T04:07:14.343Z,2.52
2019-02-27T04:09:43.212Z,2.56
2019-02-27T04:12:16.200Z,2.49
2019-02-27T04:14:42.710Z,2.46
2019-02-27T04:17:11.564Z,2.43
2019-02-27T04:19:40.584Z,2.52
2019-02-27T04:22:09.408Z,2.63
2019-02-27T04:24:38.208Z,2.71
2019-02-27T04:27:06.964Z,2.73
2019-02-27T04:29:40.801Z,2.78
2019-02-27T04:32:09.607Z,2.80
2019-02-27T04:34:36.803Z,2.89
2019-02-27T04:37:05.639Z,2.97
2019-02-27T04:39:35.786Z,3.03
2019-02-27T04:42:04.895Z,3.05
2019-02-27T04:44:35.950Z,3.02
2019-02-27T04:47:04.324Z,3.00
2019-02-27T04:49:34.860Z,3.04
2019-02-27T04:52:03.746Z,2.99
2019-02-27T04:54:32.595Z,3.08
2019-02-27T04:57:01.447Z,3.09
2019-02-27T04:59:30.226Z,3.17
2019-02-27T05:01:59.077Z,3.19
2019-02-27T05:04:27.844Z,3.22
2019-02-27T05:06:56.635Z,3.24
2019-02-27T05:09:25.472Z,3.30
2019-02-27T05:11:54.236Z,3.34
2019-02-27T05:14:24.842Z,3.40
2019-02-27T05:16:53.579Z,3.39
2019-02-27T05:19:22.419Z,3.33
2019-02-27T05:21:52.571Z,3.42
2019-02-27T05:24:21.989Z,3.49
2019-02-27T05:26:50.769Z,3.44
2019-02-27T05:29:19.523Z,3.47
2019-02-27T05:31:50.192Z,3.52
2019-02-27T05:34:18.898Z,3.64
2019-02-27T05:36:47.656Z,3.65
2019-02-27T05:39:17.274Z,3.70
2019-02-27T05:41:46.709Z,3.79
2019-02-27T05:44:15.480Z,3.83
2019-02-27T05:46:44.321Z,3.89
2019-02-27T05:49:13.098Z,4.03
2019-02-27T05:51:41.944Z,4.16
2019-02-27T05:54:10.786Z,4.22
2019-02-27T05:56:39.585Z,4.21
2019-02-27T05:59:08.351Z,4.19
2019-02-27T06:01:38.283Z,4.23
2019-02-27T06:04:07.541Z,4.34
2019-02-27T06:06:36.389Z,4.42
2019-02-27T06:09:10.066Z,4.47
2019-02-27T06:11:37.376Z,4.49
2019-02-27T06:14:06.229Z,4.54
2019-02-27T06:16:37.631Z,4.63
2019-02-27T06:19:05.599Z,4.64
2019-02-27T06:21:34.352Z,4.62
2019-02-27T06:24:03.114Z,4.70
2019-02-27T06:26:32.466Z,4.78
2019-02-27T06:29:01.746Z,4.84
2019-02-27T06:31:30.503Z,4.78
2019-02-27T06:33:59.511Z,4.75
2019-02-27T06:36:28.275Z,4.72
2019-02-27T06:39:00.159Z,4.78
2019-02-27T06:41:27.517Z,4.79
2019-02-27T06:43:58.880Z,4.86
2019-02-27T06:46:26.867Z,4.92
2019-02-27T06:48:56.496Z,4.95
2019-02-27T06:51:25.441Z,4.99
2019-02-27T06:53:54.208Z,5.09
2019-02-27T06:56:23.058Z,5.23
2019-02-27T06:58:51.804Z,5.33
2019-02-27T07:01:20.582Z,5.32
2019-02-27T07:03:49.416Z,5.37
2019-02-27T07:06:21.284Z,5.49
2019-02-27T07:08:48.664Z,5.50
2019-02-27T07:11:17.420Z,5.49
2019-02-27T07:13:46.197Z,5.57
2019-02-27T07:16:15.041Z,5.71
2019-02-27T07:18:43.802Z,5.68
2019-02-27T07:21:12.647Z,5.84
2019-02-27T07:23:41.485Z,6.05
2019-02-27T07:26:10.326Z,6.15
2019-02-27T07:28:43.177Z,6.22
2019-02-27T07:31:09.592Z,6.34
2019-02-27T07:33:40.694Z,6.46
2019-02-27T07:36:08.933Z,6.49
2019-02-27T07:38:37.687Z,6.68
2019-02-27T07:41:06.450Z,6.84
2019-02-27T07:43:35.226Z,6.96
2019-02-27T07:46:03.991Z,7.01
2019-02-27T07:48:32.755Z,7.11
2019-02-27T07:51:02.184Z,7.13
2019-02-27T07:53:30.965Z,7.26
2019-02-27T07:55:59.793Z,7.46
2019-02-27T07:58:28.906Z,7.64
2019-02-27T08:00:59.052Z,7.81
2019-02-27T08:03:28.388Z,8.12
2019-02-27T08:05:59.818Z,8.73
2019-02-27T08:08:28.808Z,8.91
2019-02-27T08:10:58.168Z,9.20
2019-02-27T08:13:29.670Z,9.28
2019-02-27T08:15:58.601Z,9.46
2019-02-27T08:18:30.396Z,9.59
2019-02-27T08:20:59.131Z,9.49
2019-02-27T08:23:28.507Z,9.40
2019-02-27T08:25:57.922Z,9.38
2019-02-27T08:28:27.258Z,9.73
2019-02-27T08:30:56.633Z,9.68
2019-02-27T08:33:26.060Z,9.95
2019-02-27T08:35:55.408Z,10.75
2019-02-27T08:38:24.762Z,11.37
2019-02-27T08:40:57.219Z,11.73
2019-02-27T08:43:25.267Z,12.04
2019-02-27T08:45:54.628Z,12.36
2019-02-27T08:48:23.993Z,12.15
2019-02-27T08:50:53.346Z,12.25
2019-02-27T08:53:25.848Z,11.61
2019-02-27T08:55:53.803Z,11.22
2019-02-27T08:58:23.173Z,10.86
2019-02-27T09:00:52.574Z,10.57
2019-02-27T09:03:22.011Z,10.57
2019-02-27T09:05:53.709Z,10.40
2019-02-27T09:08:22.478Z,10.05
2019-02-27T09:10:51.819Z,9.77
2019-02-27T09:13:21.163Z,9.65
2019-02-27T09:15:50.526Z,9.36
2019-02-27T09:18:19.940Z,9.32
2019-02-27T09:20:53.077Z,9.70
2019-02-27T09:23:20.481Z,9.74
2019-02-27T09:25:57.069Z,9.57
2019-02-27T09:28:20.952Z,9.50
2019-02-27T09:30:50.387Z,9.39
2019-02-27T09:33:20.006Z,9.45
2019-02-27T09:35:50.282Z,9.29
2019-02-27T09:38:24.126Z,9.38
2019-02-27T09:40:50.804Z,9.15
2019-02-27T09:43:20.180Z,8.95
2019-02-27T09:45:49.603Z,8.89
2019-02-27T09:48:19.364Z,8.82
2019-02-27T09:50:49.153Z,8.53
2019-02-27T09:53:18.553Z,8.64
2019-02-27T09:55:48.059Z,8.16
2019-02-27T09:58:17.411Z,8.06
2019-02-27T10:00:59.194Z,7.92
2019-02-27T10:03:26.629Z,8.11
2019-02-27T10:05:55.994Z,8.04
2019-02-27T10:08:26.148Z,8.11
2019-02-27T10:10:55.510Z,8.02
2019-02-27T10:13:24.874Z,7.85
2019-02-27T10:15:54.228Z,8.05
2019-02-27T10:18:23.592Z,7.78
2019-02-27T10:20:52.947Z,7.73
2019-02-27T10:23:22.313Z,7.68
2019-02-27T10:25:51.647Z,7.70
2019-02-27T10:28:21.007Z,7.56
2019-02-27T10:30:50.703Z,7.57
2019-02-27T10:33:20.265Z,7.59
2019-02-27T10:35:49.670Z,7.76
2019-02-27T10:38:18.488Z,7.88
2019-02-27T10:40:47.843Z,7.95
2019-02-27T10:43:17.263Z,7.89
2019-02-27T10:45:49.365Z,8.14
2019-02-27T10:48:17.767Z,8.15
2019-02-27T10:50:47.132Z,8.21
2019-02-27T10:53:16.496Z,8.33
2019-02-27T10:55:46.487Z,8.33
2019-02-27T10:58:16.937Z,8.42
2019-02-27T11:00:47.185Z,8.14
2019-02-27T11:03:16.567Z,8.01
2019-02-27T11:05:45.946Z,8.03
2019-02-27T11:08:15.377Z,7.92
2019-02-27T11:10:44.828Z,8.04
2019-02-27T11:13:14.177Z,8.14
2019-02-27T11:15:44.819Z,8.11
2019-02-27T11:18:14.862Z,8.16
2019-02-27T11:20:44.242Z,8.06
2019-02-27T11:23:13.622Z,7.86
2019-02-27T11:25:43.060Z,7.80
2019-02-27T11:28:12.408Z,7.81
2019-02-27T11:30:42.875Z,7.73
2019-02-27T11:33:24.812Z,7.76
2019-02-27T11:35:43.571Z,8.12
2019-02-27T11:38:12.984Z,8.27
2019-02-27T11:40:42.926Z,8.34
2019-02-27T11:43:12.364Z,8.46
2019-02-27T11:45:41.713Z,8.67
2019-02-27T11:48:11.059Z,8.82
2019-02-27T11:50:40.408Z,8.89
2019-02-27T11:53:09.754Z,8.78
2019-02-27T11:55:39.119Z,8.97
2019-02-27T11:58:08.497Z,8.91
2019-02-27T12:00:37.857Z,8.54
2019-02-27T12:03:08.650Z,8.64
2019-02-27T12:05:38.353Z,8.63
2019-02-27T12:08:07.757Z,8.70
2019-02-27T12:10:37.136Z,8.46
2019-02-27T12:13:06.718Z,8.51
2019-02-27T12:15:36.077Z,8.51
2019-02-27T12:18:05.542Z,8.38
2019-02-27T12:20:34.890Z,8.44
2019-02-27T12:23:07.530Z,8.42
2019-02-27T12:25:36.195Z,8.51
2019-02-27T12:28:06.339Z,8.50
2019-02-27T12:30:37.450Z,8.51
2019-02-27T12:33:07.132Z,8.69
2019-02-27T12:35:37.288Z,8.90
2019-02-27T12:38:08.141Z,9.05
2019-02-27T12:40:37.816Z,9.17
2019-02-27T12:43:07.230Z,9.02
2019-02-27T12:45:36.659Z,8.92
2019-02-27T12:48:06.037Z,9.07
2019-02-27T12:50:35.402Z,9.17
2019-02-27T12:53:04.977Z,9.41
2019-02-27T12:55:36.279Z,9.38
2019-02-27T12:58:05.610Z,9.22
2019-02-27T13:00:35.681Z,9.16
2019-02-27T13:03:08.346Z,9.00
2019-02-27T13:05:36.317Z,9.15
2019-02-27T13:08:05.692Z,9.18
2019-02-27T13:10:35.070Z,9.35
2019-02-27T13:13:04.515Z,9.31
2019-02-27T13:15:33.949Z,9.43
2019-02-27T13:18:03.389Z,9.82
2019-02-27T13:20:34.707Z,9.57
2019-02-27T13:25:34.041Z,9.78
2019-02-27T13:28:03.401Z,9.79
2019-02-27T13:30:32.808Z,9.74
2019-02-27T13:33:02.332Z,9.68
2019-02-27T13:35:31.748Z,10.06
2019-02-27T13:38:01.125Z,10.01
2019-02-27T13:40:35.028Z,10.14
2019-02-27T13:43:02.283Z,10.07
2019-02-27T13:45:33.199Z,10.00
2019-02-27T13:48:05.776Z,9.78
2019-02-27T13:50:33.721Z,9.84
2019-02-27T13:53:03.103Z,9.76
2019-02-27T13:55:32.472Z,9.69
2019-02-27T13:58:03.732Z,9.51
2019-02-27T14:00:35.162Z,9.44
2019-02-27T14:03:04.632Z,9.38
2019-02-27T14:05:36.008Z,9.35
2019-02-27T14:08:05.164Z,9.32
2019-02-27T14:10:34.826Z,9.35
2019-02-27T14:13:08.771Z,9.14
2019-02-27T14:15:35.251Z,9.11
2019-02-27T14:18:04.796Z,9.12
2019-02-27T14:20:34.218Z,9.10
2019-02-27T14:23:03.650Z,9.02
2019-02-27T14:25:33.711Z,9.05
2019-02-27T14:28:03.136Z,9.03
2019-02-27T14:30:50.426Z,9.06
2019-02-27T14:33:20.623Z,9.08
2019-02-27T14:35:50.124Z,8.99
2019-02-27T14:38:21.805Z,8.95
2019-02-27T14:40:50.552Z,8.97
2019-02-27T14:43:19.909Z,8.90
2019-02-27T14:45:50.781Z,8.80
2019-02-27T14:48:21.616Z,9.24
2019-02-27T14:50:51.550Z,9.10
2019-02-27T14:53:21.009Z,9.07
2019-02-27T14:55:50.374Z,9.32
2019-02-27T14:58:24.092Z,9.44
2019-02-27T15:00:50.950Z,9.46
2019-02-27T15:03:20.308Z,9.60
2019-02-27T15:05:49.745Z,9.39
2019-02-27T15:08:19.164Z,9.46
2019-02-27T15:10:48.540Z,9.68
2019-02-27T15:13:17.977Z,9.72
2019-02-27T15:15:47.423Z,9.42
2019-02-27T15:18:16.786Z,9.04
2019-02-27T15:20:46.151Z,9.10
2019-02-27T15:23:15.513Z,8.86
2019-02-27T15:25:44.943Z,8.79
2019-02-27T15:28:14.306Z,8.55
2019-02-27T15:30:46.469Z,8.52
2019-02-27T15:33:16.390Z,8.44
2019-02-27T15:35:45.911Z,8.38
2019-02-27T15:38:15.330Z,8.32
2019-02-27T15:40:45.272Z,8.17
2019-02-27T15:43:17.348Z,8.05
2019-02-27T15:45:47.979Z,7.94
2019-02-27T15:48:16.883Z,7.79
2019-02-27T15:50:46.306Z,7.72
2019-02-27T15:53:15.891Z,7.56
2019-02-27T15:55:45.557Z,7.49
2019-02-27T15:58:14.415Z,7.44
2019-02-27T16:00:43.186Z,7.37
2019-02-27T16:03:12.143Z,7.26
2019-02-27T16:05:40.981Z,7.19
2019-02-27T16:08:09.774Z,7.06
2019-02-27T16:10:42.589Z,7.05
2019-02-27T16:13:09.021Z,7.01
2019-02-27T16:15:37.787Z,6.90
2019-02-27T16:18:06.636Z,6.88
2019-02-27T16:20:35.423Z,6.81
2019-02-27T16:23:05.229Z,6.71
2019-02-27T16:25:34.149Z,6.69
2019-02-27T16:28:02.974Z,6.67
2019-02-27T16:30:33.146Z,6.63
2019-02-27T16:33:02.118Z,6.63
2019-02-27T16:35:30.963Z,6.51
2019-02-27T16:37:59.818Z,6.47
2019-02-27T16:40:29.666Z,6.33
2019-02-27T16:42:58.490Z,6.34
2019-02-27T16:45:33.533Z,6.27
2019-02-27T16:48:01.069Z,6.17
2019-02-27T16:50:29.897Z,6.18
2019-02-27T16:52:58.747Z,6.13
2019-02-27T16:55:28.372Z,6.12
2019-02-27T16:57:57.841Z,6.09
2019-02-27T17:00:31.509Z,6.01
2019-02-27T17:03:00.280Z,5.87
2019-02-27T17:05:29.115Z,5.77
2019-02-27T17:08:02.224Z,5.74
2019-02-27T17:10:33.853Z,5.65
2019-02-27T17:13:02.628Z,5.62
2019-02-27T17:15:34.570Z,5.55
2019-02-27T17:18:02.055Z,5.46
2019-02-27T17:20:30.892Z,5.43
2019-02-27T17:22:59.746Z,5.41
2019-02-27T17:25:29.961Z,5.33
2019-02-27T17:27:59.054Z,5.35
2019-02-27T17:30:30.347Z,5.27
2019-02-27T17:33:01.376Z,5.22
2019-02-27T17:35:29.770Z,5.15
2019-02-27T17:37:58.569Z,5.10
2019-02-27T17:40:29.101Z,5.04
2019-02-27T17:42:58.213Z,4.99
2019-02-27T17:45:27.784Z,4.94
2019-02-27T17:47:56.644Z,4.90
2019-02-27T17:50:31.055Z,4.88
2019-02-27T17:52:56.089Z,4.86
2019-02-27T17:55:24.892Z,4.91
2019-02-27T17:57:57.725Z,4.97
2019-02-27T18:00:51.157Z,4.98
2019-02-27T18:03:20.438Z,4.99
2019-02-27T18:05:49.248Z,4.95
2019-02-27T18:08:18.125Z,4.78
2019-02-27T18:10:47.115Z,4.67
2019-02-27T18:13:15.954Z,4.57
2019-02-27T18:15:44.751Z,4.49
2019-02-27T18:18:13.661Z,4.44
2019-02-27T18:20:42.505Z,4.39
2019-02-27T18:23:11.284Z,4.32
2019-02-27T18:25:42.078Z,4.26
2019-02-27T18:28:10.855Z,4.28
2019-02-27T18:30:39.697Z,4.21
2019-02-27T18:33:13.605Z,4.05
2019-02-27T18:35:39.235Z,4.02
2019-02-27T18:38:08.030Z,3.88
2019-02-27T18:40:36.836Z,3.81
2019-02-27T18:43:05.839Z,3.80
2019-02-27T18:45:34.589Z,3.80
2019-02-27T18:48:03.427Z,3.82
2019-02-27T18:50:32.287Z,3.75
2019-02-27T18:53:01.175Z,3.77
2019-02-27T18:55:31.418Z,3.71
2019-02-27T18:58:00.387Z,3.72
2019-02-27T19:00:30.031Z,3.65
2019-02-27T19:03:04.774Z,3.62
2019-02-27T19:05:33.758Z,3.65
2019-02-27T19:08:02.665Z,3.66
2019-02-27T19:10:33.359Z,3.67
2019-02-27T19:13:02.246Z,3.70
2019-02-27T19:15:31.250Z,3.74
2019-02-27T19:18:00.136Z,3.79
2019-02-27T19:20:31.903Z,3.80
2019-02-27T19:23:00.729Z,3.81
2019-02-27T19:25:34.147Z,3.86
2019-02-27T19:28:00.188Z,3.85
2019-02-27T19:30:29.405Z,3.84
2019-02-27T19:33:01.790Z,3.81
2019-02-27T19:35:28.860Z,3.82
2019-02-27T19:37:57.613Z,3.83
2019-02-27T19:40:29.822Z,3.78
2019-02-27T19:43:02.164Z,3.75
2019-02-27T19:45:31.214Z,3.79
2019-02-27T19:48:00.053Z,3.80
2019-02-27T19:50:29.125Z,3.84
2019-02-27T19:53:03.328Z,3.86
2019-02-27T19:55:30.058Z,3.87
2019-02-27T19:57:58.841Z,3.79
2019-02-27T20:00:34.837Z,3.78
2019-02-27T20:03:02.789Z,3.69
2019-02-27T20:05:31.672Z,3.68
2019-02-27T20:08:02.360Z,3.53
2019-02-27T20:10:33.268Z,3.50
2019-02-27T20:13:01.815Z,3.49
2019-02-27T20:15:30.669Z,3.49
2019-02-27T20:17:59.537Z,3.49
2019-02-27T20:20:30.010Z,3.47
2019-02-27T20:22:58.955Z,3.46
2019-02-27T20:25:29.779Z,3.39
2019-02-27T20:27:58.967Z,3.43
2019-02-27T20:30:27.807Z,3.42
2019-02-27T20:32:56.650Z,3.38
2019-02-27T20:35:25.553Z,3.38
2019-02-27T20:37:54.399Z,3.39
2019-02-27T20:40:23.167Z,3.37
2019-02-27T20:42:54.870Z,3.38
2019-02-27T20:45:26.797Z,3.41
2019-02-27T20:48:00.530Z,3.42
2019-02-27T20:50:35.040Z,3.51
2019-02-27T20:52:59.993Z,3.50
2019-02-27T20:55:30.952Z,3.51
2019-02-27T20:57:59.400Z,3.61
2019-02-27T21:00:28.202Z,3.63
2019-02-27T21:02:57.039Z,3.66
2019-02-27T21:05:26.870Z,3.68
2019-02-27T21:08:00.907Z,3.66
2019-02-27T21:10:34.267Z,3.67
2019-02-27T21:13:03.035Z,3.70
2019-02-27T21:15:32.386Z,3.67
2019-02-27T21:18:02.136Z,3.66
2019-02-27T21:20:33.096Z,3.68
2019-02-27T21:23:01.548Z,3.75
2019-02-27T21:25:30.319Z,3.83
2019-02-27T21:27:59.169Z,3.86
2019-02-27T21:30:27.966Z,3.77
2019-02-27T21:32:56.739Z,3.85
2019-02-27T21:35:28.854Z,3.85
2019-02-27T21:37:56.103Z,3.88
2019-02-27T21:40:24.876Z,3.85
2019-02-27T21:42:53.706Z,3.85
2019-02-27T21:45:23.540Z,3.88
2019-02-27T21:47:52.944Z,3.92
2019-02-27T21:50:25.740Z,3.92
2019-02-27T21:52:55.600Z,3.94
2019-02-27T21:55:24.816Z,3.94
2019-02-27T21:57:53.685Z,3.97
2019-02-27T22:00:24.653Z,3.99
2019-02-27T22:02:54.789Z,3.99
2019-02-27T22:05:23.716Z,3.98
2019-02-27T22:07:52.725Z,4.04
2019-02-27T22:10:21.585Z,4.08
2019-02-27T22:12:50.460Z,4.12
2019-02-27T22:15:29.894Z,4.14
2019-02-27T22:17:58.665Z,4.19
2019-02-27T22:20:27.540Z,4.17
2019-02-27T22:22:56.367Z,4.22
2019-02-27T22:25:30.290Z,4.19
2019-02-27T22:27:58.274Z,4.20
2019-02-27T22:30:26.368Z,4.16
2019-02-27T22:32:55.196Z,4.17
2019-02-27T22:35:24.233Z,4.19
2019-02-27T22:37:53.074Z,4.17
2019-02-27T22:40:25.465Z,4.18
2019-02-27T22:42:54.303Z,4.18
2019-02-27T22:45:23.139Z,4.19
2019-02-27T22:47:54.009Z,4.14
2019-02-27T22:50:22.599Z,4.16
2019-02-27T22:52:54.579Z,4.14
2019-02-27T22:55:22.454Z,4.11
2019-02-27T22:57:51.294Z,4.14
2019-02-27T23:00:49.651Z,4.16
2019-02-27T23:03:18.681Z,4.21
2019-02-27T23:05:47.623Z,4.25
2019-02-27T23:08:16.467Z,4.21
2019-02-27T23:10:45.508Z,4.21
2019-02-27T23:13:14.377Z,4.26
2019-02-27T23:15:43.261Z,4.24
2019-02-27T23:18:12.157Z,4.21
2019-02-27T23:20:40.918Z,4.22
2019-02-27T23:23:09.745Z,4.26
2019-02-27T23:25:38.633Z,4.29
2019-02-27T23:28:07.470Z,4.34
2019-02-27T23:30:36.301Z,4.41
2019-02-27T23:33:05.111Z,4.50
2019-02-27T23:35:33.945Z,4.56
2019-02-27T23:38:03.298Z,4.64
2019-02-27T23:40:32.850Z,4.79
2019-02-27T23:43:03.399Z,4.89
2019-02-27T23:45:32.338Z,4.90
2019-02-27T23:48:02.207Z,4.95
2019-02-27T23:50:31.733Z,5.03
2019-02-27T23:53:00.625Z,5.12
2019-02-27T23:55:29.465Z,5.17
2019-02-27T23:57:58.563Z,5.23
